Česky Dansk Deutsch English Español Suomi Français Magyar Italiano Nederlands norsk Polski Português svenska Türkçe

 

Het Weer

Chisinau International Airport (Moldavië)

04:30, 15 augustus 2016 (GMT)

NWNNE
WE
SWSSE
Home            
Chisinau International Airport Kisinev Iasi Kaxul - The South of Moldova Baltsi-Leadoveni - The North of Moldova Odesa Bacau Tulcea Suceava / Salcea Mykolaiv Chernovsty Kogalniceanu Tirgu Mures Bucuresti Otopeni Krivyy Rih / Dnipropetrovs'k Bucuresti / Imh Cherkasy Ivano-Frankivsk Sibiu Kyiv Boryspil Cluj-Napoca Baia Mare

Om een weerknop op uw website of weblog te plaatsen, copieer onderstaande code en plak die in uw pagina. In het eerste vakje staat HTML-code, in het tweede vakje UBB-code.


Add to Google

Details

Wind speed:1 bf, 1 kn, 0.5 m/s, 1.2 miles/h, 1.9 km/h
Wind direction:Variable
Visibility:Greater than 10000 m, 10 km, 32800 ft, 6.2 miles
Clouds:CAVOC
Temperature:17°C, 63°F
Dew-point:14°C, 57°F
Atmospheric pressure:1019 hPa, 764.3 mmHg, 30.09 inHg, 1.006 atm
Relative humidity:82.5 %
METAR:LUKK 150430Z VRB01KT CAVOK 17/14 Q1019 R26/CLRD NOSIG

Snelkoppelingen

Actuele weersinformatie van de hele wereld. Voeg locaties toe met het plus (+) symbool. Deze snelkoppelingen kunnen worden toegevoegd aan Google.

Lid van de Technetium groep

website free tracking
StatCounter NetStat W3C Validator

03-12-2022 08:59:28
astro.technetium.be money.technetium.be phote.technetium.be tafeltennistafel.technetium.be www.ligfiets.net